Time;durP1;ratioP1;P1;durP2;ratioP2;P2;SDS_P1;SDS_P2;PMS_P1;PMS_P2;Temp;Humidity;BMP_temperature;BMP_pressure;BME280_temperature;BME280_humidity;BME280_pressure;Samples;Min_cycle;Max_cycle;Signal;HPM_P1;HPM_P2
2021/12/28 00:00:25;;;;;;;2.33;1.30;;;10.20;93.80;;;10.67;65.62;97291.81;4890818;28;119389;-89
2021/12/28 00:02:55;;;;;;;10.03;1.70;;;10.20;93.80;;;10.63;65.79;97288.13;4874670;28;117775;-87
2021/12/28 00:05:25;;;;;;;2.20;1.20;;;10.20;93.80;;;10.61;66.00;97287.66;4870541;28;123163;-87
2021/12/28 00:07:52;;;;;;;2.20;1.30;;;10.20;93.80;;;10.60;65.90;97284.09;4861290;28;122961;-88
2021/12/28 00:10:20;;;;;;;4.63;1.87;;;10.10;93.80;;;10.60;66.10;97284.09;4877057;28;120681;-88
2021/12/28 00:12:48;;;;;;;2.80;1.13;;;10.10;93.80;;;10.59;66.12;97281.69;4897583;28;120611;-88
2021/12/28 00:18:02;;;;;;;1.93;1.20;;;10.10;93.80;;;10.59;66.15;97282.50;4876306;28;124261;-87
2021/12/28 00:20:36;;;;;;;4.13;1.77;;;10.10;93.80;;;10.58;65.66;97280.06;4886650;28;119441;-86
2021/12/28 00:23:26;;;;;;;3.53;1.53;;;10.10;93.80;;;10.56;65.69;97287.94;4873172;28;118841;-86
2021/12/28 00:25:57;;;;;;;2.67;1.50;;;10.10;93.70;;;10.54;65.75;97273.66;4874086;28;124607;-87
2021/12/28 00:28:26;;;;;;;3.80;1.43;;;10.10;93.80;;;10.52;65.78;97276.75;4891755;28;123797;-86
2021/12/28 00:31:15;;;;;;;3.47;1.53;;;10.00;93.70;;;10.52;65.74;97287.81;4873168;28;119763;-87
2021/12/28 00:33:44;;;;;;;2.90;1.10;;;10.10;93.70;;;10.50;66.06;97273.53;4889701;28;118181;-88
2021/12/28 00:39:54;;;;;;;4.93;1.60;;;10.00;93.60;;;10.44;65.59;97271.38;4892858;28;123594;-87
2021/12/28 00:42:23;;;;;;;3.37;1.60;;;10.00;93.60;;;10.46;65.64;97271.84;4872028;28;118916;-87
2021/12/28 00:44:50;;;;;;;3.53;1.60;;;10.00;93.60;;;10.46;65.53;97275.41;4891262;28;119047;-86
2021/12/28 00:47:17;;;;;;;6.70;2.13;;;10.00;93.60;;;10.46;65.50;97271.84;4892054;28;124050;-87
2021/12/28 00:49:44;;;;;;;5.67;1.63;;;10.00;93.60;;;10.45;65.38;97268.28;4889110;28;122796;-86
2021/12/28 00:52:49;;;;;;;5.50;1.40;;;10.00;93.60;;;10.46;65.35;97267.13;4872533;28;118586;-88
2021/12/28 00:55:19;;;;;;;3.60;1.50;;;10.00;93.50;;;10.45;65.44;97262.75;4871458;28;118726;-86
2021/12/28 00:58:04;;;;;;;4.83;1.83;;;10.00;93.50;;;10.48;65.22;97259.31;4888005;28;124198;-87
2021/12/28 01:00:36;;;;;;;3.27;1.43;;;10.00;93.50;;;10.48;65.69;97267.59;4871522;28;123328;-88
2021/12/28 01:03:06;;;;;;;5.93;1.80;;;10.00;93.50;;;10.50;65.15;97262.50;4889704;28;120256;-87
2021/12/28 01:05:37;;;;;;;4.07;1.57;;;10.00;93.50;;;10.53;65.46;97267.34;4889522;28;119018;-87
2021/12/28 01:08:06;;;;;;;4.73;1.90;;;10.10;93.50;;;10.55;65.04;97266.97;4873679;28;123294;-88
2021/12/28 01:10:59;;;;;;;4.73;1.93;;;10.10;93.40;;;10.57;64.86;97264.69;4858902;28;123563;-87
2021/12/28 01:14:21;;;;;;;4.03;1.57;;;10.10;93.40;;;10.56;64.83;97254.78;4870473;28;119620;-87
2021/12/28 01:17:07;;;;;;;5.87;1.50;;;10.10;93.30;;;10.56;64.66;97241.78;4869822;28;118003;-87
2021/12/28 01:19:36;;;;;;;4.60;1.83;;;10.10;93.30;;;10.56;64.92;97239.03;4850649;28;124350;-87
2021/12/28 01:22:24;;;;;;;11.93;1.90;;;10.10;93.30;;;10.59;64.53;97232.78;4870765;28;123687;-88
2021/12/28 01:24:51;;;;;;;3.00;1.40;;;10.10;93.20;;;10.60;64.84;97245.44;4832129;28;118619;-88
2021/12/28 01:27:20;;;;;;;3.63;1.40;;;10.10;93.20;;;10.63;64.62;97248.66;4874430;28;118305;-88
2021/12/28 01:29:47;;;;;;;3.20;1.57;;;10.10;93.20;;;10.65;64.75;97244.38;4840672;28;123731;-87
2021/12/28 01:32:14;;;;;;;4.00;1.53;;;10.20;93.10;;;10.67;64.29;97227.47;4869137;28;123966;-87
2021/12/28 01:34:41;;;;;;;5.20;2.47;;;10.20;93.10;;;10.71;64.56;97222.84;4855013;28;118479;-87
2021/12/28 01:37:07;;;;;;;5.13;1.63;;;10.20;93.10;;;10.72;64.15;97219.75;4859924;28;117818;-87
2021/12/28 01:39:35;;;;;;;7.47;1.97;;;10.20;93.10;;;10.76;64.59;97219.81;4869603;28;123507;-87
2021/12/28 01:42:06;;;;;;;4.93;2.07;;;10.40;93.10;;;10.78;64.22;97200.94;4868023;28;123664;-87
2021/12/28 01:44:34;;;;;;;4.70;1.53;;;10.30;93.10;;;10.81;64.50;97208.53;4853046;28;118402;-87
2021/12/28 01:47:03;;;;;;;3.83;1.70;;;10.30;93.00;;;10.84;64.26;97216.91;4835243;28;118690;-88
2021/12/28 01:49:32;;;;;;;4.03;1.70;;;10.30;93.00;;;10.87;64.06;97215.41;4848536;28;122609;-88
2021/12/28 01:51:59;;;;;;;5.17;1.40;;;10.30;93.00;;;10.87;64.11;97209.88;4850399;28;123782;-88
2021/12/28 01:58:08;;;;;;;4.50;1.43;;;10.30;92.90;;;10.82;63.73;97197.09;4873250;28;119716;-87
2021/12/28 02:00:58;;;;;;;4.60;1.90;;;10.30;92.90;;;10.83;63.69;97179.41;4844955;28;124337;-88
2021/12/28 02:03:45;;;;;;;5.90;1.70;;;10.30;92.80;;;10.84;63.82;97175.47;4867698;28;123398;-87
2021/12/28 02:06:13;;;;;;;8.53;1.83;;;10.30;92.80;;;10.85;64.11;97181.78;4853324;28;118847;-87
2021/12/28 02:08:40;;;;;;;4.93;1.30;;;10.30;92.80;;;10.86;63.71;97175.13;4871046;28;118862;-86
2021/12/28 02:11:10;;;;;;;2.30;1.30;;;10.40;92.80;;;10.87;63.79;97175.91;4869262;28;123472;-87
2021/12/28 02:13:38;;;;;;;5.20;1.73;;;10.40;92.80;;;10.88;63.83;97158.16;4887356;28;123773;-88
2021/12/28 02:16:05;;;;;;;9.80;1.77;;;10.40;92.80;;;10.88;64.00;97156.22;4867548;28;118779;-87
2021/12/28 02:18:34;;;;;;;2.57;1.53;;;10.40;92.80;;;10.89;63.94;97155.06;4872957;28;117039;-88
2021/12/28 02:21:07;;;;;;;4.00;1.40;;;10.40;92.70;;;10.91;63.95;97152.75;4853808;28;123305;-87
2021/12/28 02:23:36;;;;;;;4.23;1.40;;;10.40;92.70;;;10.91;63.32;97157.47;4876956;28;123393;-87
2021/12/28 02:26:21;;;;;;;2.47;1.47;;;10.40;92.70;;;10.90;63.67;97153.09;4875580;28;118905;-86
2021/12/28 02:28:47;;;;;;;5.30;2.40;;;10.40;92.60;;;10.87;63.53;97153.81;4888763;28;118020;-88
2021/12/28 02:31:33;;;;;;;6.57;1.70;;;10.30;92.60;;;10.87;63.73;97145.53;4885487;28;124111;-88
2021/12/28 02:41:24;;;;;;;3.20;1.73;;;10.30;92.50;;;10.77;63.76;97133.84;4887461;28;118892;-87
2021/12/28 02:47:32;;;;;;;2.83;1.67;;;11.70;93.00;;;10.74;63.23;97117.16;4882932;28;123522;-87
2021/12/28 02:50:01;;;;;;;4.50;1.80;;;10.30;92.40;;;10.76;63.20;97114.84;4869209;28;120223;-86
2021/12/28 02:52:27;;;;;;;3.57;1.87;;;10.30;92.40;;;10.77;63.39;97110.94;4855971;28;118948;-88
2021/12/28 02:54:54;;;;;;;3.83;1.63;;;10.30;92.40;;;10.80;63.71;97107.44;4882909;28;124347;-87
2021/12/28 02:57:20;;;;;;;4.40;2.17;;;10.40;92.40;;;10.80;63.43;97105.50;4864107;28;123154;-88
2021/12/28 03:00:11;;;;;;;3.80;1.40;;;10.30;92.40;;;10.81;62.92;97100.78;4886663;28;119335;-86
2021/12/28 03:02:39;;;;;;;3.33;1.90;;;10.30;92.30;;;10.80;63.25;97099.16;4875256;28;118146;-85
2021/12/28 03:05:06;;;;;;;1.60;1.20;;;10.30;92.30;;;10.80;62.94;97100.00;4894133;28;123584;-85
2021/12/28 03:07:32;;;;;;;5.37;1.70;;;10.30;92.30;;;10.80;63.14;97082.59;4905901;28;123295;-81
2021/12/28 03:10:00;;;;;;;2.67;1.50;;;10.30;92.30;;;10.78;63.18;97084.94;4892282;28;120661;-85
2021/12/28 03:12:26;;;;;;;6.40;2.00;;;10.30;92.30;;;10.81;62.63;97086.97;4884616;28;119962;-82
2021/12/28 03:14:53;;;;;;;6.17;1.93;;;10.30;92.30;;;10.80;63.18;97085.34;4836677;29;124493;-86
2021/12/28 03:21:03;;;;;;;2.00;1.30;;;10.30;92.20;;;10.77;63.17;97073.06;4802984;29;119113;-88
2021/12/28 03:23:31;;;;;;;6.23;2.30;;;10.30;92.20;;;10.79;62.93;97064.41;4814746;29;119198;-87
2021/12/28 03:25:57;;;;;;;10.30;2.23;;;10.30;92.20;;;10.79;63.09;97062.44;4816505;29;124716;-86
2021/12/28 03:32:05;;;;;;;7.30;2.60;;;10.30;92.20;;;10.77;62.66;97066.72;4817162;29;119534;-88
2021/12/28 03:35:10;;;;;;;2.97;1.70;;;10.30;92.20;;;10.76;62.97;97060.41;4802638;29;118462;-87
2021/12/28 03:37:37;;;;;;;6.53;1.90;;;10.30;92.20;;;10.76;63.03;97054.09;4818850;29;123943;-87
2021/12/28 03:40:40;;;;;;;2.60;1.97;;;10.20;92.10;;;10.76;62.66;97051.31;4811523;29;123928;-88
2021/12/28 03:43:08;;;;;;;4.40;1.70;;;10.30;92.10;;;10.75;62.51;97050.53;4801278;29;119452;-87
2021/12/28 03:45:58;;;;;;;5.43;1.97;;;10.20;92.10;;;10.76;62.98;97048.56;4815440;29;119274;-87
2021/12/28 03:49:04;;;;;;;6.40;2.03;;;10.30;92.10;;;10.75;63.00;97041.44;4809587;29;124647;-88
2021/12/28 03:52:01;;;;;;;8.67;1.90;;;10.20;92.10;;;10.73;63.21;97041.00;4818331;28;123853;-87
2021/12/28 03:54:47;;;;;;;5.43;2.20;;;10.20;92.10;;;10.73;62.54;97033.50;4867156;28;119286;-88
2021/12/28 04:00:55;;;;;;;3.13;1.60;;;10.20;92.00;;;10.70;62.60;97033.41;4867084;28;124817;-85
2021/12/28 04:03:22;;;;;;;3.63;1.50;;;10.20;92.00;;;10.71;62.62;97032.25;4873436;28;122955;-88
2021/12/28 04:13:11;;;;;;;6.87;2.27;;;10.20;92.00;;;10.70;62.49;97028.69;4874768;28;124005;-87
2021/12/28 04:15:58;;;;;;;4.40;1.73;;;10.20;92.00;;;10.73;62.75;97032.72;4855019;29;123529;-88
2021/12/28 04:22:07;;;;;;;1.93;1.40;;;10.20;91.90;;;10.73;62.35;97024.41;4879985;28;119000;-88
2021/12/28 04:28:15;;;;;;;3.43;1.60;;;10.20;91.80;;;10.69;62.54;97021.56;4871360;28;123778;-89
2021/12/28 04:30:41;;;;;;;5.77;1.83;;;10.20;91.80;;;10.70;62.32;97022.38;4873609;28;119320;-88
2021/12/28 04:33:09;;;;;;;3.20;1.63;;;10.20;91.70;;;10.70;62.33;97017.66;4867632;28;118729;-87
2021/12/28 04:36:15;;;;;;;5.13;1.20;;;10.20;91.70;;;10.73;62.13;97021.66;4872082;28;123336;-88
2021/12/28 04:39:38;;;;;;;6.47;1.40;;;10.20;91.70;;;10.71;62.00;97007.41;4864409;28;124162;-87
2021/12/28 04:43:01;;;;;;;1.90;1.40;;;10.20;91.60;;;10.70;61.81;97001.06;4873493;28;120813;-87
2021/12/28 04:45:29;;;;;;;3.63;1.40;;;10.20;91.60;;;10.69;61.90;96999.44;4880006;28;119178;-87
2021/12/28 04:51:57;;;;;;;3.30;1.60;;;10.20;91.60;;;10.72;62.04;96990.47;4871537;28;123759;-88
2021/12/28 04:55:20;;;;;;;3.53;1.43;;;10.20;91.60;;;10.75;61.74;96997.25;4855046;28;117561;-88
2021/12/28 04:58:07;;;;;;;4.87;1.43;;;10.20;91.60;;;10.76;61.65;96990.56;4863658;28;117668;-87
2021/12/28 05:00:36;;;;;;;2.13;1.20;;;10.20;91.60;;;10.78;61.65;96991.00;4844609;28;124060;-88
2021/12/28 05:06:44;;;;;;;3.83;1.33;;;10.30;91.60;;;10.79;62.30;96976.81;4867229;28;119873;-89
2021/12/28 05:09:15;;;;;;;3.17;1.13;;;10.30;91.70;;;10.83;62.08;96976.91;4851291;28;117940;-88
2021/12/28 05:12:02;;;;;;;1.83;1.57;;;10.30;91.70;;;10.86;62.09;96981.72;4887764;28;124062;-88
2021/12/28 05:17:54;;;;;;;3.10;1.67;;;10.40;91.70;;;10.86;62.13;96965.16;4889190;28;119755;-89
2021/12/28 05:20:23;;;;;;;2.20;1.27;;;10.30;91.70;;;10.87;62.13;96969.50;4888702;28;118928;-86
2021/12/28 05:23:10;;;;;;;5.00;1.50;;;10.40;91.80;;;10.90;62.21;96966.00;4866896;28;123999;-88
2021/12/28 05:26:15;;;;;;;1.63;1.20;;;10.40;91.80;;;10.90;62.25;96960.50;4887368;28;124012;-88
2021/12/28 05:32:23;;;;;;;5.23;1.43;;;10.40;91.80;;;10.89;62.52;96961.66;4888427;28;118836;-88
2021/12/28 05:35:09;;;;;;;3.03;1.70;;;10.40;91.90;;;10.91;62.08;96962.09;4894254;28;124435;-88
2021/12/28 05:37:55;;;;;;;2.20;1.30;;;10.40;91.80;;;10.92;62.31;96960.94;4890189;28;123882;-87
2021/12/28 05:40:41;;;;;;;2.60;1.30;;;10.40;91.90;;;10.93;62.38;96950.69;4883627;28;120210;-87
2021/12/28 05:43:14;;;;;;;1.80;1.30;;;10.40;91.90;;;10.93;62.37;96954.25;4892387;28;120042;-87
2021/12/28 05:45:44;;;;;;;3.87;1.23;;;10.40;91.90;;;10.92;62.84;96949.88;4892317;28;124331;-87
2021/12/28 05:48:11;;;;;;;3.13;1.37;;;10.40;92.00;;;10.93;62.85;96943.19;4874652;28;124062;-87
2021/12/28 05:50:58;;;;;;;4.80;1.63;;;10.40;92.00;;;10.95;62.96;96946.41;4872399;28;119244;-87
2021/12/28 05:53:44;;;;;;;3.03;1.53;;;10.40;92.10;;;10.95;62.88;96935.34;4883245;28;119123;-88
2021/12/28 05:56:12;;;;;;;4.00;1.77;;;10.40;92.10;;;10.95;62.65;96934.56;4875105;28;123229;-87
2021/12/28 05:58:58;;;;;;;2.30;1.23;;;10.40;92.10;;;10.98;62.49;96933.81;4877747;28;125016;-87
2021/12/28 06:01:24;;;;;;;4.90;1.70;;;10.40;92.20;;;10.97;62.86;96932.22;4881817;28;118269;-87
2021/12/28 06:03:52;;;;;;;2.43;1.67;;;10.40;92.20;;;10.98;62.68;96931.06;4878499;28;119083;-86
2021/12/28 06:06:58;;;;;;;3.20;1.67;;;10.40;92.20;;;10.97;62.74;96938.56;4883701;28;123599;-86
2021/12/28 06:09:24;;;;;;;4.47;1.43;;;10.40;92.20;;;10.94;62.81;96936.53;4879577;28;124178;-86
2021/12/28 06:11:52;;;;;;;1.50;1.10;;;10.40;92.20;;;10.93;62.90;96931.34;4870876;28;119643;-88
2021/12/28 06:14:21;;;;;;;1.40;1.30;;;10.50;92.20;;;10.93;62.98;96926.59;4858575;28;119548;-87
2021/12/28 06:16:48;;;;;;;3.10;1.47;;;10.40;92.20;;;10.95;63.16;96934.56;4854975;28;122659;-87
2021/12/28 06:19:34;;;;;;;1.67;1.27;;;10.40;92.20;;;10.91;62.94;96928.94;4842548;28;124068;-88
2021/12/28 06:22:19;;;;;;;3.27;1.47;;;10.40;92.30;;;10.92;62.94;96913.97;4848513;28;118653;-88
2021/12/28 06:25:23;;;;;;;3.27;1.60;;;10.40;92.30;;;10.90;63.10;96915.50;4869325;28;119903;-87
2021/12/28 06:28:47;;;;;;;2.27;1.33;;;10.40;92.30;;;10.88;63.28;96935.22;4862173;28;124215;-87
2021/12/28 06:31:14;;;;;;;2.87;1.50;;;10.40;92.40;;;10.88;63.56;96931.63;4858635;28;124052;-89
2021/12/28 06:33:44;;;;;;;2.97;1.20;;;10.40;92.40;;;10.89;63.48;96924.94;4845647;28;120560;-88
2021/12/28 06:36:30;;;;;;;3.13;1.37;;;10.40;92.50;;;10.91;63.59;96934.47;4855853;28;119821;-88
2021/12/28 06:38:58;;;;;;;2.07;1.17;;;10.40;92.50;;;10.90;63.70;96921.81;4872643;28;123344;-88
2021/12/28 06:41:24;;;;;;;2.00;1.60;;;10.40;92.50;;;10.92;63.42;96922.25;4866100;28;124283;-87
2021/12/28 06:43:51;;;;;;;1.77;1.30;;;10.40;92.50;;;10.93;63.84;96920.28;4858045;28;118371;-88
2021/12/28 06:46:17;;;;;;;1.93;1.60;;;10.40;92.50;;;10.92;63.68;96919.50;4870875;28;119451;-88
2021/12/28 06:49:05;;;;;;;2.90;1.30;;;10.40;92.50;;;10.94;63.34;96924.66;4864817;28;123863;-88
2021/12/28 06:51:32;;;;;;;1.83;1.33;;;10.40;92.50;;;10.92;63.22;96913.16;4851364;28;125207;-87
2021/12/28 06:54:17;;;;;;;4.10;1.17;;;10.40;92.50;;;10.92;63.26;96919.50;4855040;28;119310;-88
2021/12/28 06:56:45;;;;;;;1.50;1.10;;;10.40;92.50;;;10.89;63.30;96911.13;4872675;28;119108;-87
2021/12/28 06:59:15;;;;;;;2.90;1.27;;;10.40;92.50;;;10.88;63.75;96915.03;4868009;28;124105;-87
2021/12/28 07:01:45;;;;;;;2.03;1.20;;;10.40;92.50;;;10.87;63.69;96913.44;4874010;28;124633;-87
2021/12/28 07:04:11;;;;;;;1.20;0.90;;;10.40;92.60;;;10.85;63.79;96922.09;4855178;28;119342;-88
2021/12/28 07:07:36;;;;;;;1.43;1.00;;;10.30;92.50;;;10.85;63.74;96919.31;4861145;28;118152;-88
2021/12/28 07:10:07;;;;;;;1.90;1.40;;;10.40;92.60;;;10.82;64.01;96920.06;4890289;28;122075;-88
2021/12/28 07:12:35;;;;;;;1.37;1.00;;;10.30;92.60;;;10.83;63.82;96919.69;4894247;28;124097;-88
2021/12/28 07:15:05;;;;;;;1.40;1.10;;;10.30;92.60;;;10.85;63.68;96922.09;4873478;28;118434;-88
2021/12/28 07:17:34;;;;;;;3.47;1.37;;;10.20;92.50;;;10.84;63.99;96920.50;4888391;28;119400;-88
2021/12/28 07:24:04;;;;;;;1.33;1.00;;;10.30;92.60;;;10.78;63.86;96914.44;4891051;28;124368;-87
2021/12/28 07:26:30;;;;;;;2.10;1.60;;;10.30;92.60;;;10.77;63.72;96912.03;4874303;28;119737;-87
2021/12/28 07:28:57;;;;;;;2.80;1.03;;;10.30;92.60;;;10.77;63.78;96906.50;4890206;28;119565;-87
2021/12/28 07:31:24;;;;;;;0.97;0.90;;;10.40;92.70;;;10.80;63.99;96914.06;4892959;28;123165;-88
2021/12/28 07:34:31;;;;;;;1.40;0.90;;;10.40;92.70;;;10.80;63.80;96901.09;4857990;28;123131;-88
2021/12/28 07:36:59;;;;;;;1.43;1.10;;;10.30;92.60;;;10.81;63.94;96901.88;4841514;29;118662;-88
2021/12/28 07:39:25;;;;;;;1.20;0.80;;;10.40;92.70;;;10.82;63.89;96912.56;4862973;28;119470;-87
2021/12/28 07:41:54;;;;;;;1.97;1.00;;;10.40;93.00;;;10.85;64.38;96902.75;4859569;28;123416;-89
2021/12/28 07:44:22;;;;;;;1.30;1.10;;;10.40;92.70;;;10.87;63.94;96908.72;4843982;28;123786;-87
2021/12/28 07:46:48;;;;;;;2.73;1.27;;;10.40;92.70;;;10.91;64.09;96901.31;4844825;28;119116;-86
2021/12/28 07:49:15;;;;;;;3.23;1.10;;;10.50;92.70;;;10.95;64.15;96907.72;4842527;28;118976;-89
2021/12/28 07:51:42;;;;;;;2.00;0.90;;;10.50;92.70;;;11.00;63.63;96910.19;4858972;28;124301;-86
2021/12/28 07:54:09;;;;;;;1.43;1.03;;;10.50;92.70;;;11.03;63.61;96912.22;4854999;28;122945;-87
2021/12/28 07:56:37;;;;;;;1.67;1.17;;;10.50;92.60;;;11.04;63.71;96916.63;4857655;28;119163;-88
2021/12/28 07:59:07;;;;;;;1.20;1.10;;;10.60;92.60;;;11.06;63.55;96922.56;4852882;29;118097;-88
2021/12/28 08:01:35;;;;;;;3.47;1.30;;;10.60;92.50;;;11.09;63.13;96928.53;4855383;28;122446;-88
2021/12/28 08:04:02;;;;;;;3.67;1.27;;;10.60;92.50;;;11.10;63.60;96919.88;4845250;29;124035;-88
2021/12/28 08:06:30;;;;;;;1.10;1.00;;;10.60;92.50;;;11.13;63.36;96915.59;4850861;29;118050;-88
2021/12/28 08:08:57;;;;;;;1.07;0.97;;;10.60;92.40;;;11.12;63.38;96928.59;4850231;28;118989;-88
2021/12/28 08:11:25;;;;;;;1.20;1.00;;;10.60;92.40;;;11.12;63.52;96928.59;4854855;28;123633;-87
2021/12/28 08:13:51;;;;;;;1.90;1.00;;;10.60;92.50;;;11.14;63.35;96925.47;4882414;28;124410;-88
2021/12/28 08:16:19;;;;;;;0.87;0.87;;;10.60;92.60;;;11.14;63.82;96917.19;4867299;28;120189;-87
2021/12/28 08:19:23;;;;;;;1.17;1.00;;;10.70;92.70;;;11.13;63.78;96934.94;4890032;28;119786;-89
2021/12/28 08:22:27;;;;;;;1.37;1.00;;;10.70;92.80;;;11.12;64.17;96938.84;4889603;28;122775;-89
2021/12/28 08:28:55;;;;;;;1.03;0.90;;;10.70;92.90;;;11.15;64.73;96940.91;4889553;28;119391;-90
2021/12/28 08:31:41;;;;;;;1.13;0.90;;;10.70;93.00;;;11.15;64.91;96943.66;4874453;28;118992;-89
2021/12/28 08:34:10;;;;;;;0.90;0.90;;;10.70;93.00;;;11.15;64.80;96943.66;4889444;28;123226;-88
2021/12/28 08:36:56;;;;;;;1.00;0.90;;;10.70;93.10;;;11.17;64.63;96944.91;4892558;28;123035;-89
2021/12/28 08:40:02;;;;;;;1.00;0.90;;;10.70;93.10;;;11.20;64.54;96946.97;4889123;28;118396;-89
2021/12/28 08:43:06;;;;;;;1.00;0.90;;;10.70;93.20;;;11.19;64.55;96944.56;4890503;28;118086;-90
2021/12/28 08:49:14;;;;;;;0.97;0.90;;;10.80;93.20;;;11.23;64.87;96956.47;4893465;28;123528;-89
2021/12/28 08:52:36;;;;;;;1.10;1.00;;;10.90;93.30;;;11.26;64.61;96961.31;4886609;28;119579;-89
2021/12/28 08:55:05;;;;;;;2.00;0.90;;;10.80;93.20;;;11.27;64.81;96957.38;4887284;28;118220;-89
2021/12/28 08:57:33;;;;;;;1.43;0.90;;;10.80;93.30;;;11.33;64.93;96952.34;4875861;28;123805;-88
2021/12/28 09:00:22;;;;;;;1.10;1.00;;;10.80;93.20;;;11.36;64.45;96952.41;4891549;28;123891;-87
2021/12/28 09:03:10;;;;;;;1.40;1.00;;;10.90;93.20;;;11.39;64.48;96954.47;4874296;28;117511;-88
2021/12/28 09:05:40;;;;;;;1.30;0.80;;;10.90;93.30;;;11.41;64.64;96957.66;4859090;28;118239;-88
2021/12/28 09:08:13;;;;;;;1.00;0.87;;;11.50;93.50;;;11.45;64.45;96961.31;4863133;28;124127;-87
2021/12/28 09:10:58;;;;;;;1.47;0.80;;;11.00;93.30;;;11.49;64.65;96964.94;4891755;28;123022;-88
2021/12/28 09:17:25;;;;;;;0.90;0.80;;;11.00;93.20;;;11.51;64.64;96964.59;4891993;28;120442;-88
2021/12/28 09:20:16;;;;;;;0.80;0.73;;;11.10;93.40;;;11.55;64.62;96961.88;4886803;28;123777;-88
2021/12/28 09:22:45;;;;;;;1.53;0.90;;;11.10;93.40;;;11.58;64.70;96972.22;4888194;28;124359;-89
2021/12/28 09:26:09;;;;;;;0.90;0.80;;;11.10;93.40;;;11.63;64.64;96974.69;4885237;28;119349;-88
2021/12/28 09:32:18;;;;;;;1.00;0.80;;;11.20;93.30;;;11.68;64.70;96966.09;4885573;28;124710;-89
2021/12/28 09:35:41;;;;;;;1.47;0.83;;;11.20;93.60;;;11.74;64.65;96964.66;4873780;28;123269;-88
2021/12/28 09:38:27;;;;;;;1.13;1.00;;;11.30;93.40;;;11.79;64.64;96972.63;4864272;28;118358;-88
2021/12/28 09:41:15;;;;;;;1.00;0.90;;;11.30;93.40;;;11.84;64.54;96982.63;4878859;28;119102;-89
2021/12/28 09:43:43;;;;;;;1.10;1.00;;;11.40;93.40;;;11.84;65.05;96977.88;4874617;28;123034;-88
2021/12/28 09:46:30;;;;;;;1.00;0.90;;;11.40;93.40;;;11.87;64.71;96979.94;4883861;28;126279;-88
2021/12/28 09:48:57;;;;;;;1.00;0.80;;;11.40;93.40;;;11.90;64.85;96982.00;4886653;28;119599;-88
2021/12/28 09:51:47;;;;;;;1.70;1.10;;;11.40;93.40;;;11.95;64.57;96980.88;4881105;28;118195;-90
2021/12/28 09:54:14;;;;;;;0.80;0.77;;;11.50;93.50;;;11.98;64.81;96985.69;4884766;28;124184;-90
2021/12/28 09:56:40;;;;;;;1.17;0.90;;;11.50;93.60;;;12.00;64.86;96991.66;4867501;28;124201;-88
2021/12/28 09:59:08;;;;;;;1.10;1.00;;;11.50;93.50;;;12.04;64.72;96994.50;4880378;28;119148;-89
2021/12/28 10:01:37;;;;;;;1.27;1.00;;;11.60;93.50;;;12.09;64.68;96983.13;4882706;28;119511;-88
2021/12/28 10:04:04;;;;;;;0.90;0.80;;;11.60;93.60;;;12.12;64.78;96988.75;4870260;28;124232;-88
2021/12/28 10:06:31;;;;;;;1.60;1.10;;;11.60;93.60;;;12.19;64.95;96984.50;4887070;28;124264;-89
2021/12/28 10:09:19;;;;;;;1.00;0.90;;;11.70;93.60;;;12.24;64.73;96987.75;4849098;28;120101;-89
2021/12/28 10:11:54;;;;;;;1.07;0.97;;;11.70;93.60;;;12.29;64.61;96983.88;4867487;28;119160;-88
2021/12/28 10:15:01;;;;;;;0.97;0.87;;;11.80;93.60;;;12.33;64.97;96985.56;4856750;28;124520;-89
2021/12/28 10:18:24;;;;;;;1.40;1.00;;;11.80;93.60;;;12.38;64.40;96993.56;4874208;28;123262;-88
2021/12/28 10:20:55;;;;;;;1.10;1.00;;;11.90;93.60;;;12.40;64.84;96993.19;4862527;28;118957;-89
2021/12/28 10:23:28;;;;;;;1.03;0.93;;;11.90;93.60;;;12.44;64.53;96987.69;4857418;28;117640;-88
2021/12/28 10:25:59;;;;;;;0.80;0.80;;;12.00;93.60;;;12.50;64.65;96991.78;4868569;28;123732;-90
2021/12/28 10:28:38;;;;;;;0.90;0.80;;;12.00;93.60;;;12.57;64.53;96983.56;4866573;28;124090;-87
2021/12/28 10:31:17;;;;;;;1.40;1.10;;;12.20;93.70;;;12.64;64.38;96988.44;4851984;28;119287;-89
2021/12/28 10:33:46;;;;;;;1.20;0.90;;;12.10;93.60;;;12.66;64.52;96986.91;4869301;28;119205;-88
2021/12/28 10:36:34;;;;;;;1.03;0.90;;;12.20;93.70;;;12.70;64.43;96978.63;4863237;28;124477;-88
2021/12/28 10:39:03;;;;;;;1.07;0.90;;;12.20;93.60;;;12.73;64.67;96970.38;4852075;28;123450;-88
2021/12/28 10:41:32;;;;;;;1.20;0.90;;;12.20;93.70;;;12.78;64.47;96961.75;4860064;28;118664;-86
2021/12/28 10:44:00;;;;;;;1.10;0.93;;;12.30;93.70;;;12.85;64.54;96976.91;4846651;28;118947;-89
2021/12/28 10:46:30;;;;;;;1.00;0.90;;;12.30;93.70;;;12.92;64.50;96971.47;4862726;28;123259;-87
2021/12/28 10:49:00;;;;;;;1.30;0.83;;;12.40;93.70;;;12.94;64.48;96966.34;4864579;28;123846;-87
2021/12/28 10:51:33;;;;;;;0.80;0.80;;;12.40;93.70;;;12.98;64.34;96961.66;4865990;28;119715;-87
2021/12/28 10:56:37;;;;;;;1.30;1.00;;;12.50;93.70;;;13.07;64.66;96973.28;4862508;28;124484;-88
2021/12/28 10:59:07;;;;;;;1.10;1.00;;;12.60;93.70;;;13.12;64.46;96975.72;4863681;28;123989;-88
2021/12/28 11:01:38;;;;;;;1.13;1.03;;;12.60;93.80;;;13.19;64.53;96975.84;4865194;28;120293;-88
2021/12/28 11:04:11;;;;;;;1.00;0.80;;;12.70;93.80;;;13.30;64.29;96970.47;4860709;28;120055;-86
2021/12/28 11:06:42;;;;;;;1.47;1.00;;;12.80;93.90;;;13.39;64.28;96973.75;4866225;28;124350;-87
2021/12/28 11:09:19;;;;;;;1.27;1.10;;;12.80;93.80;;;13.49;64.06;96958.44;4858027;28;121986;-87
2021/12/28 11:11:49;;;;;;;1.00;0.90;;;13.00;93.80;;;13.59;63.89;96959.72;4883422;28;119060;-87
2021/12/28 11:14:21;;;;;;;1.20;1.10;;;13.00;93.80;;;13.72;63.99;96951.97;4872099;28;117147;-89
2021/12/28 11:17:00;;;;;;;5.13;1.17;;;13.10;93.80;;;13.86;63.17;96950.16;4881613;28;124192;-88
2021/12/28 11:19:47;;;;;;;1.00;0.90;;;13.30;93.70;;;14.02;63.17;96958.25;4870982;28;122914;-86
2021/12/28 11:22:14;;;;;;;2.17;1.00;;;13.40;93.60;;;14.13;62.96;96956.41;4886144;28;119350;-86
2021/12/28 11:24:46;;;;;;;1.00;0.90;;;13.50;93.50;;;14.19;62.66;96954.06;4887447;28;119065;-86
2021/12/28 11:27:24;;;;;;;0.97;0.80;;;13.60;93.40;;;14.26;62.58;96953.34;4871719;28;124222;-89
2021/12/28 11:29:52;;;;;;;0.80;0.80;;;13.70;93.30;;;14.34;62.50;96946.66;4890788;28;123996;-88
2021/12/28 11:32:20;;;;;;;0.80;0.80;;;13.80;93.20;;;14.43;62.33;96944.38;4889079;28;119491;-86
2021/12/28 11:34:48;;;;;;;1.00;0.90;;;13.80;93.10;;;14.49;62.05;96939.25;4873392;28;119157;-87
2021/12/28 11:37:22;;;;;;;0.80;0.70;;;13.90;92.90;;;14.50;61.92;96941.63;4868800;28;124379;-87
2021/12/28 11:40:00;;;;;;;0.80;0.80;;;14.00;92.90;;;14.54;61.89;96938.94;4881009;28;124043;-87
2021/12/28 11:42:30;;;;;;;0.90;0.80;;;14.00;92.80;;;14.57;61.81;96924.28;4890423;28;119470;-89
2021/12/28 11:44:57;;;;;;;1.00;0.90;;;14.10;92.80;;;14.60;61.74;96928.25;4891089;28;119335;-89
2021/12/28 11:47:25;;;;;;;1.20;0.93;;;14.10;92.70;;;14.62;61.63;96926.69;4885461;28;126216;-87
2021/12/28 11:49:57;;;;;;;1.10;1.00;;;14.10;92.60;;;14.60;61.25;96934.63;4859574;28;124003;-88
2021/12/28 11:52:44;;;;;;;1.50;1.10;;;14.10;92.50;;;14.56;61.66;96933.78;4886221;28;119581;-89
2021/12/28 11:55:11;;;;;;;1.10;1.00;;;14.20;92.50;;;14.53;61.56;96929.81;4887095;28;119766;-86
2021/12/28 11:57:51;;;;;;;1.23;0.90;;;14.10;92.40;;;14.50;61.74;96922.19;4888956;28;123088;-87
2021/12/28 12:00:20;;;;;;;0.90;0.80;;;14.10;92.40;;;14.48;61.78;96929.31;4888880;28;123579;-88
2021/12/28 12:02:52;;;;;;;1.20;0.93;;;14.10;92.40;;;14.44;61.68;96925.72;4874109;28;118496;-88
2021/12/28 12:05:25;;;;;;;1.67;1.00;;;14.10;92.50;;;14.43;61.75;96927.72;4873522;28;119360;-88
2021/12/28 12:08:14;;;;;;;1.20;1.10;;;14.00;92.50;;;14.39;62.01;96926.06;4868564;28;124514;-88
2021/12/28 12:10:44;;;;;;;1.53;0.87;;;14.00;92.50;;;14.33;62.33;96928.41;4867976;28;124025;-88
2021/12/28 12:13:27;;;;;;;1.10;1.00;;;14.00;92.60;;;14.30;62.26;96923.63;4854902;28;117404;-89